createdAt,value
2018-07-09T00:00:44.548Z,19.70
2018-07-09T00:03:12.797Z,19.70
2018-07-09T00:05:41.093Z,19.80
2018-07-09T00:08:09.382Z,19.70
2018-07-09T00:10:37.670Z,19.80
2018-07-09T00:13:05.925Z,19.70
2018-07-09T00:15:34.212Z,19.70
2018-07-09T00:18:03.312Z,19.70
2018-07-09T00:20:31.581Z,19.70
2018-07-09T00:22:59.856Z,19.70
2018-07-09T00:25:28.125Z,19.70
2018-07-09T00:27:56.408Z,19.70
2018-07-09T00:30:24.657Z,19.60
2018-07-09T00:32:53.030Z,19.50
2018-07-09T00:35:21.319Z,19.50
2018-07-09T00:37:49.619Z,19.40
2018-07-09T00:40:17.927Z,19.40
2018-07-09T00:42:46.232Z,19.40
2018-07-09T00:45:13.763Z,19.40
2018-07-09T00:47:42.058Z,19.30
2018-07-09T00:50:10.312Z,19.10
2018-07-09T00:52:38.631Z,19.00
2018-07-09T00:55:06.133Z,19.00
2018-07-09T00:57:34.416Z,19.00
2018-07-09T01:00:03.627Z,19.10
2018-07-09T01:02:32.625Z,19.20
2018-07-09T01:05:00.931Z,19.10
2018-07-09T01:07:29.215Z,19.10
2018-07-09T01:09:57.501Z,19.10
2018-07-09T01:12:25.778Z,19.00
2018-07-09T01:14:55.030Z,18.90
2018-07-09T01:17:23.850Z,19.00
2018-07-09T01:19:52.128Z,19.00
2018-07-09T01:22:19.653Z,18.90
2018-07-09T01:24:47.944Z,19.10
2018-07-09T01:27:16.192Z,19.10
2018-07-09T01:29:44.519Z,19.10
2018-07-09T01:32:12.817Z,19.10
2018-07-09T01:34:41.124Z,19.10
2018-07-09T01:37:09.412Z,19.10
2018-07-09T01:39:37.667Z,19.10
2018-07-09T01:42:05.953Z,19.10
2018-07-09T01:44:34.233Z,19.20
2018-07-09T01:47:03.555Z,19.10
2018-07-09T01:49:32.664Z,19.10
2018-07-09T01:52:00.925Z,19.10
2018-07-09T01:54:29.200Z,19.10
2018-07-09T01:59:51.201Z,18.90
2018-07-09T02:08:06.434Z,18.80
2018-07-09T02:10:34.695Z,18.70
2018-07-09T02:13:02.976Z,18.80
2018-07-09T02:15:31.244Z,18.70
2018-07-09T02:18:18.640Z,18.60
2018-07-09T02:20:46.901Z,18.40
2018-07-09T02:23:15.152Z,18.40
2018-07-09T02:28:36.012Z,18.40
2018-07-09T02:31:04.290Z,18.40
2018-07-09T02:33:34.099Z,18.50
2018-07-09T02:36:23.193Z,18.50
2018-07-09T02:38:51.463Z,18.40
2018-07-09T02:41:19.740Z,18.40
2018-07-09T02:43:47.991Z,18.40
2018-07-09T02:46:18.269Z,18.40
2018-07-09T02:48:46.540Z,18.30
2018-07-09T02:51:17.499Z,18.20
2018-07-09T02:53:45.804Z,18.20
2018-07-09T02:59:07.048Z,18.20
2018-07-09T03:01:35.304Z,18.10
2018-07-09T03:04:16.357Z,18.10
2018-07-09T03:06:44.647Z,18.10
2018-07-09T03:09:12.969Z,18.00
2018-07-09T03:11:41.236Z,18.10
2018-07-09T03:17:24.000Z,18.00
2018-07-09T03:19:52.298Z,18.00
2018-07-09T03:22:20.590Z,17.90
2018-07-09T03:30:35.752Z,17.50
2018-07-09T03:33:04.055Z,17.50
2018-07-09T03:35:32.900Z,17.50
2018-07-09T03:38:01.176Z,17.50
2018-07-09T03:46:15.317Z,17.50
2018-07-09T03:51:37.067Z,17.60
2018-07-09T04:02:44.542Z,17.50
2018-07-09T04:05:12.797Z,17.50
2018-07-09T04:07:41.092Z,17.50
2018-07-09T04:10:09.374Z,17.50
2018-07-09T04:12:37.680Z,17.50
2018-07-09T04:15:05.974Z,17.60
2018-07-09T04:17:34.257Z,17.60
2018-07-09T04:20:03.161Z,17.70
2018-07-09T04:22:31.422Z,17.70
2018-07-09T04:24:59.747Z,17.70
2018-07-09T04:27:28.013Z,17.70
2018-07-09T04:29:56.763Z,17.70
2018-07-09T04:32:25.065Z,17.70
2018-07-09T04:34:53.228Z,17.70
2018-07-09T04:37:21.555Z,17.40
2018-07-09T04:39:49.864Z,17.40
2018-07-09T04:42:18.124Z,17.40
2018-07-09T04:44:46.409Z,17.50
2018-07-09T04:47:13.933Z,17.40
2018-07-09T04:49:42.181Z,17.50
2018-07-09T04:52:10.476Z,17.50
2018-07-09T04:54:37.964Z,17.40
2018-07-09T04:57:06.261Z,17.50
2018-07-09T04:59:34.582Z,17.50
2018-07-09T05:02:02.895Z,17.50
2018-07-09T05:04:31.192Z,17.60
2018-07-09T05:06:59.488Z,17.60
2018-07-09T05:09:27.824Z,17.60
2018-07-09T05:11:56.093Z,17.70
2018-07-09T05:14:25.660Z,17.60
2018-07-09T05:16:55.301Z,17.60
2018-07-09T05:19:23.586Z,17.60
2018-07-09T05:21:51.859Z,17.60
2018-07-09T05:24:20.145Z,17.60
2018-07-09T05:26:48.393Z,17.60
2018-07-09T05:29:16.709Z,17.60
2018-07-09T05:31:45.001Z,17.60
2018-07-09T05:34:13.296Z,17.60
2018-07-09T05:36:41.606Z,17.50
2018-07-09T05:39:09.864Z,17.60
2018-07-09T05:41:38.191Z,17.60
2018-07-09T05:44:06.448Z,17.60
2018-07-09T05:46:34.757Z,17.70
2018-07-09T05:49:03.016Z,17.60
2018-07-09T05:51:31.330Z,17.60
2018-07-09T05:53:59.596Z,17.60
2018-07-09T05:56:27.880Z,17.80
2018-07-09T05:58:56.148Z,17.80
2018-07-09T06:01:25.042Z,17.80
2018-07-09T06:03:54.033Z,17.80
2018-07-09T06:06:22.318Z,17.80
2018-07-09T06:08:50.571Z,17.80
2018-07-09T06:11:18.861Z,17.90
2018-07-09T06:13:47.148Z,17.90
2018-07-09T06:16:15.449Z,17.90
2018-07-09T06:18:42.952Z,17.90
2018-07-09T06:21:11.228Z,18.10
2018-07-09T06:23:39.521Z,18.20
2018-07-09T06:26:07.821Z,18.30
2018-07-09T06:28:36.123Z,18.50
2018-07-09T06:31:04.419Z,18.50
2018-07-09T06:33:33.274Z,18.60
2018-07-09T06:36:01.543Z,18.80
2018-07-09T06:38:29.890Z,18.80
2018-07-09T06:40:58.452Z,18.90
2018-07-09T06:43:26.712Z,19.00
2018-07-09T06:45:55.078Z,19.00
2018-07-09T06:48:24.908Z,19.10
2018-07-09T06:50:53.946Z,19.20
2018-07-09T06:53:22.218Z,19.40
2018-07-09T06:55:50.550Z,19.50
2018-07-09T06:58:18.775Z,19.50
2018-07-09T07:00:47.073Z,19.60
2018-07-09T07:03:14.564Z,19.50
2018-07-09T07:05:42.848Z,19.60
2018-07-09T07:08:11.119Z,19.80
2018-07-09T07:10:39.453Z,19.80
2018-07-09T07:13:07.723Z,20.00
2018-07-09T07:15:36.028Z,20.00
2018-07-09T07:18:04.280Z,20.10
2018-07-09T07:20:33.202Z,20.00
2018-07-09T07:23:01.526Z,20.00
2018-07-09T07:25:29.838Z,19.90
2018-07-09T07:27:58.123Z,19.90
2018-07-09T07:30:26.389Z,19.90
2018-07-09T07:32:54.746Z,19.90
2018-07-09T07:35:24.211Z,20.10
2018-07-09T07:37:54.607Z,20.10
2018-07-09T07:40:23.902Z,20.20
2018-07-09T07:42:52.183Z,20.20
2018-07-09T07:45:20.506Z,20.20
2018-07-09T07:47:49.742Z,20.20
2018-07-09T07:50:18.102Z,20.20
2018-07-09T07:52:45.545Z,20.20
2018-07-09T07:55:13.871Z,20.30
2018-07-09T07:57:42.123Z,20.30
2018-07-09T08:00:10.468Z,20.40
2018-07-09T08:02:38.776Z,20.40
2018-07-09T08:05:07.072Z,20.40
2018-07-09T08:07:35.327Z,20.50
2018-07-09T08:10:04.312Z,20.40
2018-07-09T08:13:13.742Z,20.40
2018-07-09T08:15:00.720Z,20.40
2018-07-09T08:17:29.010Z,20.40
2018-07-09T08:19:57.307Z,20.50
2018-07-09T08:22:25.620Z,20.60
2018-07-09T08:24:54.537Z,20.60
2018-07-09T08:27:23.198Z,20.70
2018-07-09T08:29:51.527Z,20.80
2018-07-09T08:32:19.817Z,21.00
2018-07-09T08:34:48.083Z,21.10
2018-07-09T08:37:16.409Z,21.00
2018-07-09T08:39:44.679Z,21.20
2018-07-09T08:42:12.966Z,21.30
2018-07-09T08:44:41.269Z,21.50
2018-07-09T08:47:08.761Z,21.40
2018-07-09T08:49:37.067Z,21.80
2018-07-09T08:52:05.342Z,21.90
2018-07-09T08:54:34.349Z,21.70
2018-07-09T08:57:03.404Z,21.80
2018-07-09T08:59:32.653Z,21.80
2018-07-09T09:02:00.969Z,21.70
2018-07-09T09:04:29.231Z,21.70
2018-07-09T09:06:57.520Z,21.70
2018-07-09T09:09:25.769Z,21.80
2018-07-09T09:11:55.185Z,21.90
2018-07-09T09:14:24.484Z,21.90
2018-07-09T09:16:53.216Z,22.10
2018-07-09T09:19:21.593Z,22.30
2018-07-09T09:21:49.896Z,22.60
2018-07-09T09:24:18.160Z,22.60
2018-07-09T09:26:46.419Z,22.60
2018-07-09T09:29:14.708Z,22.70
2018-07-09T09:31:42.964Z,22.60
2018-07-09T09:34:11.240Z,22.60
2018-07-09T09:36:39.546Z,22.70
2018-07-09T09:39:07.088Z,22.70
2018-07-09T09:41:45.191Z,23.20
2018-07-09T09:44:13.503Z,23.40
2018-07-09T09:46:41.864Z,23.70
2018-07-09T09:49:10.170Z,23.70
2018-07-09T09:51:38.468Z,23.90
2018-07-09T09:54:16.959Z,24.20
2018-07-09T09:56:45.295Z,24.10
2018-07-09T09:59:13.553Z,24.30
2018-07-09T10:01:41.877Z,24.50
2018-07-09T10:04:10.099Z,24.50
2018-07-09T10:06:38.425Z,24.40
2018-07-09T10:09:07.669Z,24.40
2018-07-09T10:11:35.958Z,24.50
2018-07-09T10:14:04.242Z,24.70
2018-07-09T10:16:33.422Z,24.70
2018-07-09T10:19:01.686Z,24.80
2018-07-09T10:21:30.008Z,24.90
2018-07-09T10:23:58.325Z,24.90
2018-07-09T10:26:26.589Z,24.90
2018-07-09T10:28:58.183Z,25.00
2018-07-09T10:31:26.467Z,25.10
2018-07-09T10:33:55.727Z,25.00
2018-07-09T10:36:25.012Z,24.80
2018-07-09T10:38:54.014Z,24.60
2018-07-09T10:41:22.363Z,24.40
2018-07-09T10:43:50.735Z,24.30
2018-07-09T10:46:18.991Z,24.10
2018-07-09T10:48:47.273Z,23.90
2018-07-09T10:51:15.560Z,23.90
2018-07-09T10:53:49.863Z,23.90
2018-07-09T10:56:18.194Z,24.00
2018-07-09T10:58:47.530Z,24.00
2018-07-09T11:01:15.781Z,24.20
2018-07-09T11:03:47.522Z,24.30
2018-07-09T11:06:15.031Z,24.30
2018-07-09T11:08:59.925Z,24.50
2018-07-09T11:11:28.191Z,24.80
2018-07-09T11:13:56.690Z,24.70
2018-07-09T11:16:24.983Z,25.20
2018-07-09T11:18:53.319Z,25.50
2018-07-09T11:21:25.156Z,25.50
2018-07-09T11:23:54.214Z,25.10
2018-07-09T11:26:21.781Z,25.10
2018-07-09T11:28:50.064Z,25.10
2018-07-09T11:31:19.292Z,25.20
2018-07-09T11:33:47.597Z,25.30
2018-07-09T11:36:37.121Z,25.00
2018-07-09T11:39:05.456Z,25.00
2018-07-09T11:41:36.376Z,25.10
2018-07-09T11:44:04.673Z,25.20
2018-07-09T11:46:32.930Z,25.30
2018-07-09T11:49:11.432Z,25.50
2018-07-09T11:51:39.718Z,25.60
2018-07-09T11:54:07.995Z,25.60
2018-07-09T11:56:36.325Z,25.60
2018-07-09T11:59:09.870Z,25.60
2018-07-09T12:01:38.204Z,25.60
2018-07-09T12:04:06.472Z,25.70
2018-07-09T12:06:34.769Z,25.60
2018-07-09T12:09:04.044Z,25.70
2018-07-09T12:11:33.412Z,25.70
2018-07-09T12:14:08.521Z,25.60
2018-07-09T12:16:36.832Z,25.60
2018-07-09T12:19:05.128Z,25.40
2018-07-09T12:21:34.765Z,25.20
2018-07-09T12:24:02.955Z,25.00
2018-07-09T12:26:31.272Z,24.80
2018-07-09T12:28:59.616Z,24.80
2018-07-09T12:31:28.070Z,24.70
2018-07-09T12:33:56.352Z,24.70
2018-07-09T12:36:25.921Z,24.90
2018-07-09T12:38:55.488Z,25.00
2018-07-09T12:41:23.770Z,24.90
2018-07-09T12:43:52.037Z,24.90
2018-07-09T12:46:20.336Z,24.90
2018-07-09T12:48:48.583Z,25.00
2018-07-09T12:51:16.906Z,25.00
2018-07-09T12:53:45.173Z,25.00
2018-07-09T12:56:13.457Z,25.00
2018-07-09T12:58:41.714Z,25.00
2018-07-09T13:01:09.993Z,25.10
2018-07-09T13:06:31.666Z,25.10
2018-07-09T13:09:00.005Z,25.40
2018-07-09T13:11:28.319Z,25.40
2018-07-09T13:13:56.575Z,25.70
2018-07-09T13:16:27.885Z,25.60
2018-07-09T13:18:56.241Z,25.70
2018-07-09T13:21:25.755Z,25.60
2018-07-09T13:23:55.279Z,25.50
2018-07-09T13:26:24.587Z,25.20
2018-07-09T13:39:27.883Z,25.20
2018-07-09T13:44:48.752Z,25.20
2018-07-09T13:47:17.039Z,25.20
2018-07-09T13:49:45.297Z,25.30
2018-07-09T13:52:37.253Z,25.50
2018-07-09T13:55:05.608Z,25.40
2018-07-09T14:00:27.648Z,25.40
2018-07-09T14:14:39.467Z,25.10
2018-07-09T14:17:07.724Z,25.20
2018-07-09T14:19:36.012Z,25.20
2018-07-09T14:27:50.971Z,25.20
2018-07-09T14:30:19.267Z,25.00
2018-07-09T14:35:40.305Z,25.00
2018-07-09T14:38:23.352Z,24.90
2018-07-09T14:40:55.049Z,24.70
2018-07-09T14:46:16.160Z,24.70
2018-07-09T14:48:44.490Z,24.60
2018-07-09T14:51:25.444Z,24.50
2018-07-09T15:05:27.163Z,23.60
2018-07-09T15:19:35.211Z,22.90
2018-07-09T15:22:04.270Z,23.40
2018-07-09T15:24:34.396Z,23.70
2018-07-09T15:27:03.744Z,23.80
2018-07-09T15:29:32.018Z,23.80
2018-07-09T15:34:53.329Z,23.80
2018-07-09T15:37:21.615Z,24.20
2018-07-09T15:39:49.896Z,24.20
2018-07-09T15:42:30.947Z,24.30
2018-07-09T15:44:59.214Z,24.30
2018-07-09T15:47:27.498Z,24.00
2018-07-09T15:49:55.790Z,24.10
2018-07-09T15:55:17.430Z,24.30
2018-07-09T15:57:45.684Z,24.40
2018-07-09T16:00:13.978Z,24.30
2018-07-09T16:02:54.812Z,24.30
2018-07-09T16:05:23.709Z,24.20
2018-07-09T16:07:52.008Z,24.20
2018-07-09T16:13:13.424Z,24.00
2018-07-09T16:15:41.708Z,23.90
2018-07-09T16:18:10.000Z,23.80
2018-07-09T16:20:38.248Z,23.60
2018-07-09T16:25:59.377Z,23.40
2018-07-09T16:31:21.154Z,23.60
2018-07-09T16:33:49.408Z,23.60
2018-07-09T16:36:17.707Z,23.60
2018-07-09T16:38:46.008Z,23.60
2018-07-09T16:41:33.314Z,23.60
2018-07-09T16:44:03.743Z,23.60
2018-07-09T16:46:32.025Z,23.60
2018-07-09T16:49:00.342Z,23.50
2018-07-09T16:54:22.572Z,23.30
2018-07-09T16:59:44.407Z,23.10
2018-07-09T17:05:05.569Z,23.00
2018-07-09T17:07:34.362Z,22.90
2018-07-09T17:10:03.917Z,22.90
2018-07-09T17:15:25.863Z,22.90
2018-07-09T17:17:54.668Z,22.90
2018-07-09T17:20:25.324Z,22.80
2018-07-09T17:22:55.236Z,22.90
2018-07-09T17:25:25.000Z,23.00
2018-07-09T17:27:54.317Z,23.00
2018-07-09T17:39:09.221Z,23.00
2018-07-09T17:41:37.560Z,23.10
2018-07-09T17:52:45.980Z,22.90
2018-07-09T17:55:14.261Z,22.60
2018-07-09T17:57:43.832Z,22.60
2018-07-09T18:00:12.131Z,22.50
2018-07-09T18:02:40.385Z,22.50
2018-07-09T18:05:08.645Z,22.50
2018-07-09T18:07:36.168Z,22.50
2018-07-09T18:12:56.961Z,22.60
2018-07-09T18:15:25.296Z,22.40
2018-07-09T18:17:54.304Z,22.40
2018-07-09T18:23:16.775Z,22.20
2018-07-09T18:31:32.560Z,22.20
2018-07-09T18:34:00.870Z,22.20
2018-07-09T18:36:29.174Z,22.00
2018-07-09T18:38:57.461Z,22.00
2018-07-09T18:41:25.748Z,22.00
2018-07-09T18:43:54.024Z,22.00
2018-07-09T18:46:22.314Z,21.80
2018-07-09T18:51:43.712Z,21.90
2018-07-09T18:54:11.245Z,21.80
2018-07-09T18:56:39.541Z,21.60
2018-07-09T19:04:55.598Z,21.60
2018-07-09T19:07:23.945Z,21.40
2018-07-09T19:09:52.266Z,21.40
2018-07-09T19:12:24.310Z,21.30
2018-07-09T19:14:59.211Z,21.30
2018-07-09T19:17:27.472Z,21.20
2018-07-09T19:19:55.760Z,21.00
2018-07-09T19:25:16.643Z,21.00
2018-07-09T19:27:44.539Z,20.50
2018-07-09T19:30:12.371Z,20.60
2018-07-09T19:35:35.918Z,20.50
2018-07-09T19:38:02.999Z,20.40
2018-07-09T19:43:23.466Z,20.30
2018-07-09T19:45:50.598Z,20.30
2018-07-09T19:48:18.289Z,20.30
2018-07-09T19:50:46.162Z,20.10
2018-07-09T19:53:13.943Z,20.10
2018-07-09T19:55:40.984Z,20.10
2018-07-09T19:58:08.784Z,19.90
2018-07-09T20:00:37.562Z,19.80
2018-07-09T20:03:05.390Z,19.80
2018-07-09T20:05:33.869Z,19.80
2018-07-09T20:08:02.900Z,19.80
2018-07-09T20:10:46.457Z,19.80
2018-07-09T20:13:14.263Z,19.70
2018-07-09T20:15:57.077Z,19.80
2018-07-09T20:18:24.854Z,19.80
2018-07-09T20:20:52.626Z,19.50
2018-07-09T20:23:20.448Z,19.50
2018-07-09T20:25:48.220Z,19.60
2018-07-09T20:28:16.000Z,19.70
2018-07-09T20:30:43.810Z,19.40
2018-07-09T20:33:11.615Z,19.40
2018-07-09T20:35:38.632Z,19.40
2018-07-09T20:38:06.465Z,19.60
2018-07-09T20:40:34.327Z,19.50
2018-07-09T20:43:03.169Z,19.60
2018-07-09T20:45:45.824Z,19.40
2018-07-09T20:48:13.568Z,19.30
2018-07-09T20:53:35.260Z,19.30
2018-07-09T20:56:15.606Z,19.30
2018-07-09T20:58:43.420Z,19.30
2018-07-09T21:01:32.088Z,19.20
2018-07-09T21:03:59.120Z,19.20
2018-07-09T21:06:26.900Z,19.00
2018-07-09T21:08:54.660Z,18.90
2018-07-09T21:11:22.461Z,18.90
2018-07-09T21:13:49.523Z,18.90
2018-07-09T21:16:17.484Z,18.80
2018-07-09T21:18:45.151Z,18.70
2018-07-09T21:21:12.919Z,18.50
2018-07-09T21:23:40.709Z,18.50
2018-07-09T21:26:08.473Z,18.50
2018-07-09T21:28:36.391Z,18.40
2018-07-09T21:31:04.042Z,18.50
2018-07-09T21:33:32.466Z,18.30
2018-07-09T21:36:00.226Z,18.30
2018-07-09T21:38:27.258Z,18.30
2018-07-09T21:40:55.075Z,18.40
2018-07-09T21:43:23.522Z,18.40
2018-07-09T21:45:51.330Z,18.50
2018-07-09T21:48:29.778Z,18.60
2018-07-09T21:50:47.288Z,18.50
2018-07-09T21:53:15.192Z,18.50
2018-07-09T21:55:42.948Z,18.50
2018-07-09T21:58:10.744Z,18.50
2018-07-09T22:00:38.540Z,18.50
2018-07-09T22:03:06.337Z,18.50
2018-07-09T22:05:34.176Z,18.50
2018-07-09T22:08:02.617Z,18.50
2018-07-09T22:10:30.450Z,18.40
2018-07-09T22:12:58.279Z,18.50
2018-07-09T22:15:26.091Z,18.40
2018-07-09T22:17:54.796Z,18.30
2018-07-09T22:20:22.606Z,18.30
2018-07-09T22:22:50.453Z,18.30
2018-07-09T22:25:18.249Z,18.20
2018-07-09T22:27:46.017Z,18.20
2018-07-09T22:30:13.853Z,18.20
2018-07-09T22:32:42.112Z,18.10
2018-07-09T22:35:10.373Z,18.20
2018-07-09T22:37:37.926Z,18.20
2018-07-09T22:40:06.280Z,18.10
2018-07-09T22:42:34.516Z,18.30
2018-07-09T22:45:03.398Z,18.30
2018-07-09T22:47:32.461Z,18.30
2018-07-09T22:50:00.762Z,18.30
2018-07-09T22:52:29.076Z,18.30
2018-07-09T22:54:57.415Z,18.40
2018-07-09T22:57:25.672Z,18.40
2018-07-09T22:59:53.956Z,18.40
2018-07-09T23:02:22.260Z,18.60
2018-07-09T23:04:51.569Z,18.60
2018-07-09T23:07:19.865Z,18.70
2018-07-09T23:09:49.051Z,18.60
2018-07-09T23:12:17.299Z,18.50
2018-07-09T23:14:45.592Z,18.60
2018-07-09T23:20:25.371Z,18.50
2018-07-09T23:22:54.632Z,18.70
2018-07-09T23:25:22.448Z,18.60
2018-07-09T23:27:50.210Z,18.40
2018-07-09T23:30:17.978Z,18.50
2018-07-09T23:32:45.838Z,18.50
2018-07-09T23:35:24.443Z,18.50
2018-07-09T23:37:52.270Z,18.50
2018-07-09T23:40:20.026Z,18.30
2018-07-09T23:42:48.132Z,18.10
2018-07-09T23:45:15.912Z,18.00
2018-07-09T23:47:43.721Z,18.00
2018-07-09T23:50:11.547Z,17.80
2018-07-09T23:52:39.319Z,17.50
2018-07-09T23:55:07.120Z,17.40
2018-07-09T23:57:35.373Z,17.30
